Elliot Chaparral Reserve, California Weather observations

Data are for 10 minute period ending at time listed.
 Day   Time   Solar   Ave.   Ave.  Ave.  Vector  Max.   Baro.   Total    
  of    of     Rad.   Air    Rel.  Wind   Wind   Wind  Press.  Precip.   
Year   Day            Temp.  Hum.  Speed  Dir.   Gust                    
2015   (PST)  Kw/m2    F      %     mph   deg.    mph    mb.     in.     
-------------------------------------------------------------------------
 186    2:40   0.00   62.9    85    4.6   311     6.6   984.7    0.00 
 186    2:50   0.00   62.7    85    4.4   299     6.6   984.6    0.00 
 186    3:00   0.00   62.4    86    5.6   292     6.9   984.7    0.00 
 186    3:10   0.00   62.4    86    5.5   301     8.0   984.7    0.00 
 186    3:20   0.00   62.1    87    6.8   288     8.3   984.7    0.00 
 186    3:30   0.00   62.2    87    6.2   283     8.0   984.8    0.00 
 186    3:40   0.00   62.1    87    5.7   286     7.3   984.9    0.00 
 186    3:50   0.00   62.0    87    6.0   294     8.0   984.9    0.00 
 186    4:00   0.00   61.8    88    5.8   294     7.3   985.0    0.00 
 186    4:10   0.00   61.8    88    6.2   288     8.5   985.0    0.00 
 186    4:20   0.00   61.6    88    6.3   295     8.8   985.1    0.00 
 186    4:30   0.00   61.6    88    3.9   277     5.1   985.2    0.00 
 186    4:40   0.00   61.6    88    3.5   276     4.7   985.4    0.00 
 186    4:50   0.00   61.8    88    3.7   285     4.9   985.5    0.00 
 186    5:00   0.00   61.7    88    3.5   304     4.9   985.5    0.00 
 186    5:10   0.00   61.7    88    2.9   278     4.5   985.5    0.00 
 186    5:20   0.00   61.7    88    3.0   278     4.3   985.6    0.00 
 186    5:30   0.00   61.7    88    3.0   264     5.0   985.7    0.00 
 186    5:40   0.01   61.6    88    3.5   268     5.6   985.7    0.00 
 186    5:50   0.01   61.7    89    4.2   265     5.6   985.8    0.00 
 186    6:00   0.01   61.8    89    4.6   262     6.0   985.8    0.00 
 186    6:10   0.03   61.8    89    5.0   282     6.3   985.8    0.00 
 186    6:20   0.03   61.7    89    6.6   272     8.3   985.9    0.00 
 186    6:30   0.03   61.8    89    5.5   268     8.0   986.0    0.00 
 186    6:40   0.04   61.7    89    5.8   258     7.3   986.1    0.00 
 186    6:50   0.05   61.9    89    5.4   255     7.4   986.1    0.00 
 186    7:00   0.06   62.0    89    5.8   248     7.7   986.4    0.00 
 186    7:10   0.06   62.0    89    5.8   255     7.4   986.5    0.00 
 186    7:20   0.06   62.0    89    5.9   257     7.4   986.6    0.00 
 186    7:30   0.08   62.2    88    5.3   260     7.5   986.7    0.00 
 186    7:40   0.08   62.3    87    5.7   259     7.6   986.8    0.00 
 186    7:50   0.09   62.7    86    4.8   274     7.6   986.8    0.00 
 186    8:00   0.10   63.1    85    4.4   256     6.6   987.0    0.00 
 186    8:10   0.11   63.4    84    4.4   282     7.0   987.1    0.00 
 186    8:20   0.12   63.4    84    4.0   261     6.6   987.2    0.00 
 186    8:30   0.14   63.8    83    3.2   273     5.7   987.1    0.00 
 186    8:40   0.19   64.6    81    2.0   241     5.6   987.1    0.00 
 186    8:50   0.20   65.0    79    3.8   235     5.9   987.1    0.00 
 186    9:00   0.22   65.6    78    2.7   286     4.4   987.0    0.00 
 186    9:10   0.23   66.5    76    2.0   344     4.7   987.0    0.00 
 186    9:20   0.23   67.1    74    2.6   358     4.7   987.0    0.00 
 186    9:30   0.26   66.5    76    3.6    28     5.6   987.0    0.00 
 186    9:40   0.30   67.0    75    1.5   355     4.5   987.0    0.00 
 186    9:50   0.32   67.9    72    2.9   281     5.4   987.0    0.00 
 186   10:00   0.32   68.3    72    3.9   288     7.8   987.1    0.00 
 186   10:10   0.34   68.2    72    3.5   276     8.2   987.1    0.00 
 186   10:20   0.35   68.6    71    5.4   308     8.8   987.1    0.00 
 186   10:30   0.39   69.4    69    6.1   309     9.7   987.1    0.00 
 186   10:40   0.41   69.4    69    7.5   294    11.3   987.1    0.00 
 186   10:50   0.83   69.6    69    6.3   316     9.1   987.1    0.00 
 186   11:00   1.07   71.9    65    5.6   342    10.6   987.0    0.00 
 186   11:10   0.48   72.0    65   10.2   318    15.3   986.9    0.00 
 186   11:20   0.48   70.2    70   11.8   300    16.0   986.7    0.00 
 186   11:30   0.61   69.9    70   12.9   315    16.7   986.7    0.00 
 186   11:40   0.81   70.6    70   12.8   309    16.7   986.7    0.00 
 186   11:50   0.88   70.6    70   12.3   322    16.7   986.7    0.00 
 186   12:00   0.92   71.1    69   12.7   324    18.3   986.6    0.00 
 186   12:10   0.96   70.0    72   14.0   305    19.1   986.5    0.00 
 186   12:20   0.93   71.4    69   12.1   311    18.2   986.5    0.00 
 186   12:30   0.68   70.4    71   13.3   316    17.3   986.4    0.00 
 186   12:40   0.61   69.8    72   11.4   312    17.1   986.3    0.00 
 186   12:50   0.54   69.8    72   13.5   295    17.7   986.3    0.00 
 186   13:00   0.54   69.4    72   12.3   304    16.2   986.3    0.00 
 186   13:10   0.48   69.7    72   10.9   315    15.1   986.3    0.00 
 186   13:20   0.53   69.7    71   11.1   285    15.7   986.1    0.00 
 186   13:30   0.79   70.9    69   10.6   287    17.1   986.1    0.00 
 186   13:40   0.64   71.0    68   11.9   287    17.2   986.0    0.00 
 186   13:50   0.85   71.7    67    9.9   296    14.0   985.9    0.00 
 186   14:00   0.77   72.4    65   10.1   288    16.1   985.8    0.00 
 186   14:10   0.58   71.1    68   12.5   289    16.8   985.7    0.00 
 186   14:20   0.72   71.5    66   11.3   286    15.3   985.7    0.00 
 186   14:30   0.58   70.5    68   12.2   278    18.8   985.7    0.00 
 186   14:40   0.45   70.3    69   11.6   285    16.0   985.8    0.00 
 186   14:50   0.42   69.9    69   10.5   281    14.2   985.8    0.00 
 186   15:00   0.39   69.7    70   11.0   282    15.3   985.8    0.00 
 186   15:10   0.39   69.4    70   11.6   276    16.3   985.8    0.00 
 186   15:20   0.39   69.5    70   11.2   273    15.2   985.8    0.00 
 186   15:30   0.34   69.3    70   11.1   270    15.2   985.8    0.00 
 186   15:40   0.34   68.9    71   11.3   288    15.7   985.8    0.00 
 186   15:50   0.29   68.5    72   10.8   284    14.8   985.8    0.00 
 186   16:00   0.27   68.2    72   10.1   284    14.7   985.9    0.00 
 186   16:10   0.23   68.0    73   10.1   286    14.0   985.9    0.00 
 186   16:20   0.21   67.4    74   11.2   275    15.9   985.8    0.00 
 186   16:30   0.19   67.3    74   10.2   289    13.3   985.8    0.00 
 186   16:40   0.16   67.0    75    9.8   292    14.1   985.8    0.00 
 186   16:50   0.13   66.8    75   10.4   273    13.6   985.8    0.00 
 186   17:00   0.10   66.4    76    9.4   286    14.3   985.9    0.00 
 186   17:10   0.09   66.4    76    8.9   289    13.3   985.9    0.00 
 186   17:20   0.08   65.8    77    9.0   290    13.7   985.9    0.00 
 186   17:30   0.07   65.6    78    7.9   309    10.7   986.0    0.00 
 186   17:40   0.06   65.6    77    8.6   299    12.3   986.0    0.00 
 186   17:50   0.05   65.3    78    8.2   300    10.5   986.0    0.00 
 186   18:00   0.04   65.1    78    8.9   294    11.3   986.1    0.00 
 186   18:10   0.03   64.6    79    9.0   288    12.1   986.1    0.00 
 186   18:20   0.01   64.4    80    7.8   299    10.7   986.2    0.00 
 186   18:30   0.01   64.2    80    8.3   302    11.8   986.2    0.00 
 186   18:40   0.00   64.2    80    7.4   293     9.3   986.3    0.00 
 186   18:50   0.00   64.2    80    7.6   277     9.9   986.4    0.00 
 186   19:00   0.00   63.9    80    9.2   284    12.6   986.6    0.00 
 186   19:10   0.00   63.6    80    8.4   285    10.7   986.8    0.00 
 186   19:20   0.00   63.7    80    7.7   278    10.3   986.8    0.00 
 186   19:30   0.00   63.5    80    7.6   285    10.0   986.8    0.00 
 186   19:40   0.00   63.4    80    7.1   296     8.4   986.8    0.00 
 186   19:50   0.00   63.3    81    6.4   303     8.3   986.8    0.00 
 186   20:00   0.00   63.4    81    5.4   288     6.9   987.0    0.00 
 186   20:10   0.00   63.4    81    4.9   309     7.5   987.2    0.00 
 186   20:20   0.00   63.2    81    5.0   301     7.1   987.3    0.00 
 186   20:30   0.00   63.3    81    5.3   315     7.4   987.3    0.00 
 186   20:40   0.00   63.1    82    5.7   321     8.6   987.3    0.00 
 186   20:50   0.00   63.1    82    4.3   304     5.9   987.4    0.00 
 186   21:00   0.00   63.1    82    4.7   308     6.3   987.6    0.00 
 186   21:10   0.00   63.1    82    5.6   300     7.1   987.6    0.00 
 186   21:20   0.00   63.0    82    5.5   303     8.0   987.7    0.00 
 186   21:30   0.00   63.0    83    7.2   303     8.8   987.7    0.00 
 186   21:40   0.00   63.0    82    5.9   308     7.5   987.7    0.00 
 186   21:50   0.00   62.9    83    6.1   294     7.7   987.6    0.00 
 186   22:00   0.00   62.9    83    7.0   292     9.1   987.7    0.00 
 186   22:10   0.00   62.7    83    6.7   301     8.6   987.7    0.00 
 186   22:20   0.00   62.7    83    6.5   310     8.6   987.7    0.00 
 186   22:30   0.00   62.6    83    7.6   329     9.8   987.7    0.00 
 186   22:40   0.00   62.6    84    5.3   313     8.2   987.6    0.00 
 186   22:50   0.00   62.6    84    6.4   301     7.7   987.6    0.00 
 186   23:00   0.00   62.4    84    6.9   304     8.3   987.6    0.00 
 186   23:10   0.00   62.5    84    5.8   317     7.5   987.6    0.00 
 186   23:20   0.00   62.5    84    6.0   330     8.3   987.7    0.00 
 186   23:30   0.00   62.4    85    6.3   312     8.3   987.7    0.00 
 186   23:40   0.00   62.2    85    7.4   309    10.0   987.7    0.00 
 186   23:50   0.00   61.8    87    8.3   316     9.7   987.6    0.00 
 187    0:00   0.00   61.6    88    6.5   318     8.5   987.5    0.00 
 187    0:10   0.00   61.5    88    6.8   292     8.5   987.4    0.00 
 187    0:20   0.00   61.4    88    6.8   300     8.8   987.4    0.00 
 187    0:30   0.00   61.2    89    7.1   312     9.4   987.4    0.00 
 187    0:40   0.00   61.2    89    6.6   301     8.7   987.4    0.00 
 187    0:50   0.00   61.2    89    5.5   326     7.1   987.4    0.00 
 187    1:00   0.00   61.2    89    5.7   321     8.3   987.4    0.00 
 187    1:10   0.00   61.1    90    5.7   320     8.1   987.5    0.00 
 187    1:20   0.00   61.2    90    4.8   326     7.2   987.4    0.00 
 187    1:30   0.00   61.1    90    5.2   334     7.0   987.3    0.00 
 187    1:40   0.00   61.1    90    3.8   338     6.2   987.4    0.00 
 187    1:50   0.00   61.2    90    4.0   337     6.3   987.4    0.00 
 187    2:00   0.00   61.0    91    5.0   332     7.3   987.3    0.00 
 187    2:10   0.00   61.0    91    4.9   330     6.6   987.3    0.00 
 187    2:20   0.00   60.9    91    4.7   329     7.0   987.4    0.00 
 187    2:30   0.00   60.9    92    4.7   320     6.5   987.4    0.00 

Return to Elliot Chaparral Reserve graphs page.


Western Regional Climate Center,wrcc@dri.edu